Time;durP1;ratioP1;P1;durP2;ratioP2;P2;SDS_P1;SDS_P2;PMS_P1;PMS_P2;Temp;Humidity;BMP_temperature;BMP_pressure;BME280_temperature;BME280_humidity;BME280_pressure;Samples;Min_cycle;Max_cycle;Signal;HPM_P1;HPM_P2
2023/03/13 00:00:46;;;;;;;;;;;;;;;9.27;91.85;100206.41;5025879;28;20364;-62
2023/03/13 00:03:11;;;;;;;;;;;;;;;9.23;92.67;100199.78;5014551;28;20350;-62
2023/03/13 00:05:36;;;;;;;;;;;;;;;9.20;93.16;100192.19;5028245;28;19925;-62
2023/03/13 00:08:02;;;;;;;;;;;;;;;9.18;93.51;100183.59;5021642;28;19980;-62
2023/03/13 00:10:27;;;;;;;;;;;;;;;9.17;93.76;100181.97;5027507;28;19925;-62
2023/03/13 00:12:52;;;;;;;;;;;;;;;9.14;94.48;100184.97;5023310;28;19929;-62
2023/03/13 00:15:17;;;;;;;;;;;;;;;9.11;95.17;100173.91;5030409;28;20032;-62
2023/03/13 00:17:42;;;;;;;;;;;;;;;9.04;95.83;100165.03;5023148;28;20012;-62
2023/03/13 00:20:08;;;;;;;;;;;;;;;8.97;96.68;100155.16;5024828;28;19917;-62
2023/03/13 00:22:33;;;;;;;;;;;;;;;8.95;97.03;100154.47;5023860;28;19987;-62
2023/03/13 00:24:58;;;;;;;;;;;;;;;8.91;97.74;100150.53;5024517;28;19961;-62
2023/03/13 00:27:23;;;;;;;;;;;;;;;8.87;98.54;100146.59;5025857;28;19925;-62
2023/03/13 00:29:49;;;;;;;;;;;;;;;8.83;99.40;100147.94;5026489;28;19929;-62
2023/03/13 00:32:14;;;;;;;;;;;;;;;8.79;100.00;100136.06;5024561;28;19921;-62
2023/03/13 00:34:40;;;;;;;;;;;;;;;8.75;100.00;100136.59;5025455;28;19917;-63
2023/03/13 00:37:05;;;;;;;;;;;;;;;8.71;100.00;100128.19;5023130;28;20445;-62
2023/03/13 00:39:30;;;;;;;;;;;;;;;8.66;100.00;100119.94;5028819;28;19920;-62
2023/03/13 00:41:55;;;;;;;;;;;;;;;8.63;100.00;100107.88;5028327;28;19937;-62
2023/03/13 00:44:20;;;;;;;;;;;;;;;8.62;100.00;100106.22;5027817;28;19917;-62
2023/03/13 00:46:45;;;;;;;;;;;;;;;8.60;100.00;100105.56;5028124;28;20504;-62
2023/03/13 00:49:11;;;;;;;;;;;;;;;8.59;100.00;100096.00;5027587;28;19923;-62
2023/03/13 00:51:36;;;;;;;;;;;;;;;8.58;100.00;100083.75;5023924;28;19921;-62
2023/03/13 00:54:02;;;;;;;;;;;;;;;8.58;100.00;100085.59;5012748;28;20000;-62
2023/03/13 00:56:28;;;;;;;;;;;;;;;8.59;100.00;100074.81;5026662;28;19921;-62
2023/03/13 00:58:53;;;;;;;;;;;;;;;8.60;100.00;100068.53;5017350;28;20357;-62
2023/03/13 01:01:25;;;;;;;;;;;;;;;8.61;100.00;100072.81;5016349;28;19948;-62
2023/03/13 01:03:52;;;;;;;;;;;;;;;8.63;100.00;100062.88;5015035;28;19917;-62
2023/03/13 01:06:19;;;;;;;;;;;;;;;8.64;100.00;100051.28;5016492;28;19944;-62
2023/03/13 01:08:45;;;;;;;;;;;;;;;8.65;100.00;100045.00;5026784;28;19917;-63
2023/03/13 01:11:12;;;;;;;;;;;;;;;8.67;100.00;100036.88;5028120;28;19921;-62
2023/03/13 01:13:38;;;;;;;;;;;;;;;8.65;100.00;100034.41;5029756;28;20381;-62
2023/03/13 01:16:03;;;;;;;;;;;;;;;8.69;100.00;100025.13;5017979;28;19917;-62
2023/03/13 01:18:28;;;;;;;;;;;;;;;8.72;100.00;100026.59;5025337;28;19959;-62
2023/03/13 01:20:53;;;;;;;;;;;;;;;8.74;100.00;100021.94;5016183;28;20340;-62
2023/03/13 01:23:18;;;;;;;;;;;;;;;8.75;100.00;100007.72;5019417;28;19947;-62
2023/03/13 01:25:43;;;;;;;;;;;;;;;8.79;100.00;100001.06;5028047;28;19929;-63
2023/03/13 01:28:09;;;;;;;;;;;;;;;8.84;100.00;100006.63;5018807;28;19932;-62
2023/03/13 01:30:34;;;;;;;;;;;;;;;8.88;100.00;100002.63;5024831;28;19962;-62
2023/03/13 01:32:59;;;;;;;;;;;;;;;8.91;100.00;99991.66;5024224;28;19917;-61
2023/03/13 01:35:24;;;;;;;;;;;;;;;8.95;100.00;99994.75;5022407;28;20469;-62
2023/03/13 01:37:49;;;;;;;;;;;;;;;8.99;100.00;99981.00;5026980;28;19983;-62
2023/03/13 01:40:15;;;;;;;;;;;;;;;9.05;100.00;99974.16;5027341;28;19921;-62
2023/03/13 01:42:56;;;;;;;;;;;;;;;9.09;100.00;99970.13;5025336;28;19918;-62
2023/03/13 01:45:40;;;;;;;;;;;;;;;9.14;100.00;99957.16;5027209;28;19917;-62
2023/03/13 01:48:05;;;;;;;;;;;;;;;9.19;100.00;99946.00;5014243;28;20386;-63
2023/03/13 01:50:30;;;;;;;;;;;;;;;9.26;100.00;99944.28;5021663;28;19963;-62
2023/03/13 01:52:55;;;;;;;;;;;;;;;9.33;100.00;99947.84;5017863;28;19921;-62
2023/03/13 01:55:21;;;;;;;;;;;;;;;9.35;100.00;99937.88;5028216;28;19924;-62
2023/03/13 01:57:49;;;;;;;;;;;;;;;9.44;100.00;99928.00;5022410;28;19917;-62
2023/03/13 02:00:27;;;;;;;;;;;;;;;9.45;100.00;99922.50;5028398;28;19924;-63
2023/03/13 02:02:54;;;;;;;;;;;;;;;9.52;100.00;99926.03;5021077;28;20012;-62
2023/03/13 02:05:21;;;;;;;;;;;;;;;9.58;100.00;99912.06;5017860;28;19921;-63
2023/03/13 02:07:49;;;;;;;;;;;;;;;9.61;100.00;99898.44;5017592;28;19921;-62
2023/03/13 02:10:16;;;;;;;;;;;;;;;9.69;100.00;99891.38;5018536;28;19936;-62
2023/03/13 02:12:42;;;;;;;;;;;;;;;9.71;100.00;99895.47;5024022;28;20352;-63
2023/03/13 02:15:13;;;;;;;;;;;;;;;9.77;100.00;99875.34;5022742;28;19917;-62
2023/03/13 02:17:39;;;;;;;;;;;;;;;9.80;100.00;99889.03;5020494;28;20007;-62
2023/03/13 02:20:05;;;;;;;;;;;;;;;9.81;100.00;99872.13;5019377;28;20051;-62
2023/03/13 02:22:37;;;;;;;;;;;;;;;9.84;100.00;99870.94;5020877;28;19924;-62
2023/03/13 02:25:02;;;;;;;;;;;;;;;9.85;100.00;99841.59;5021696;28;19920;-62
2023/03/13 02:27:27;;;;;;;;;;;;;;;9.83;100.00;99848.06;5029049;28;19917;-62
2023/03/13 02:29:52;;;;;;;;;;;;;;;9.82;100.00;99841.94;5014990;28;19964;-62
2023/03/13 02:32:18;;;;;;;;;;;;;;;9.81;100.00;99834.16;5023344;28;19921;-63
2023/03/13 02:34:45;;;;;;;;;;;;;;;9.83;100.00;99840.97;5010177;28;19919;-62
2023/03/13 02:37:12;;;;;;;;;;;;;;;9.86;100.00;99834.44;5019154;28;19921;-62
2023/03/13 02:39:40;;;;;;;;;;;;;;;9.87;100.00;99844.03;5019991;28;19917;-62
2023/03/13 02:42:06;;;;;;;;;;;;;;;9.88;100.00;99835.91;5018604;28;20339;-62
2023/03/13 02:44:36;;;;;;;;;;;;;;;9.92;100.00;99831.84;5016205;28;20363;-61
2023/03/13 02:47:01;;;;;;;;;;;;;;;9.98;100.00;99824.94;5019695;28;20444;-62
2023/03/13 02:49:28;;;;;;;;;;;;;;;10.01;100.00;99829.88;5024671;28;20537;-62
2023/03/13 02:51:55;;;;;;;;;;;;;;;10.06;100.00;99826.63;5018849;28;19956;-62
2023/03/13 02:54:23;;;;;;;;;;;;;;;10.12;100.00;99831.16;5019552;28;19952;-62
2023/03/13 02:56:50;;;;;;;;;;;;;;;10.17;100.00;99829.59;5020163;28;19975;-62
2023/03/13 02:59:16;;;;;;;;;;;;;;;10.23;100.00;99834.16;5027293;28;19920;-62
2023/03/13 03:01:41;;;;;;;;;;;;;;;10.28;100.00;99838.06;5015552;28;20012;-62
2023/03/13 03:04:06;;;;;;;;;;;;;;;10.28;100.00;99836.25;5013703;28;20376;-62
2023/03/13 03:06:32;;;;;;;;;;;;;;;10.33;100.00;99831.16;5021538;28;20062;-62
2023/03/13 03:08:57;;;;;;;;;;;;;;;10.35;100.00;99828.31;5021640;28;19917;-62
2023/03/13 03:11:22;;;;;;;;;;;;;;;10.34;100.00;99819.53;5014293;28;19948;-62
2023/03/13 03:13:47;;;;;;;;;;;;;;;10.34;100.00;99819.53;5018757;28;19921;-62
2023/03/13 03:16:19;;;;;;;;;;;;;;;10.30;100.00;99826.25;5022489;28;19917;-62
2023/03/13 03:18:45;;;;;;;;;;;;;;;10.30;100.00;99830.75;5020812;28;20375;-62
2023/03/13 03:21:10;;;;;;;;;;;;;;;10.28;100.00;99825.63;5020990;28;19928;-63
2023/03/13 03:23:36;;;;;;;;;;;;;;;10.31;100.00;99822.59;5025263;28;19939;-62
2023/03/13 03:26:02;;;;;;;;;;;;;;;10.33;100.00;99817.91;5022299;28;19928;-63
2023/03/13 03:28:27;;;;;;;;;;;;;;;10.33;100.00;99814.41;5013799;28;19917;-63
2023/03/13 03:30:53;;;;;;;;;;;;;;;10.34;100.00;99816.06;5024828;28;19956;-62
2023/03/13 03:33:19;;;;;;;;;;;;;;;10.36;100.00;99811.38;5023208;28;20378;-62
2023/03/13 03:35:44;;;;;;;;;;;;;;;10.39;100.00;99824.25;5013383;28;19984;-62
2023/03/13 03:38:09;;;;;;;;;;;;;;;10.46;100.00;99812.69;5022070;28;19946;-62
2023/03/13 03:40:35;;;;;;;;;;;;;;;10.50;100.00;99813.94;5013981;28;19913;-62
2023/03/13 03:43:00;;;;;;;;;;;;;;;10.50;100.00;99813.94;5020636;28;19917;-62
2023/03/13 03:45:25;;;;;;;;;;;;;;;10.49;100.00;99825.56;5023268;28;20405;-62
2023/03/13 03:47:50;;;;;;;;;;;;;;;10.50;100.00;99821.91;5022247;28;19921;-62
2023/03/13 03:50:15;;;;;;;;;;;;;;;10.52;100.00;99817.22;5022829;28;19965;-62
2023/03/13 03:52:41;;;;;;;;;;;;;;;10.55;100.00;99821.31;5012349;28;19917;-62
2023/03/13 03:55:06;;;;;;;;;;;;;;;10.57;100.00;99810.50;5023103;28;20390;-62
2023/03/13 03:57:31;;;;;;;;;;;;;;;10.57;100.00;99816.63;5022304;28;19921;-62
2023/03/13 03:59:56;;;;;;;;;;;;;;;10.62;100.00;99808.06;5023610;28;19924;-62
2023/03/13 04:02:21;;;;;;;;;;;;;;;10.63;100.00;99799.09;5022494;28;19939;-62
2023/03/13 04:04:47;;;;;;;;;;;;;;;10.62;100.00;99800.91;5019530;28;19913;-62
2023/03/13 04:07:12;;;;;;;;;;;;;;;10.65;100.00;99797.88;5026200;28;20366;-62
2023/03/13 04:09:37;;;;;;;;;;;;;;;10.65;100.00;99803.19;5021143;28;19921;-62
2023/03/13 04:12:02;;;;;;;;;;;;;;;10.69;100.00;99785.84;5020777;28;19920;-62
2023/03/13 04:14:28;;;;;;;;;;;;;;;10.73;100.00;99807.53;5026348;28;19921;-63
2023/03/13 04:16:53;;;;;;;;;;;;;;;10.77;100.00;99796.31;5017680;28;20002;-62
2023/03/13 04:19:18;;;;;;;;;;;;;;;10.82;100.00;99788.56;5021625;28;19941;-62
2023/03/13 04:21:43;;;;;;;;;;;;;;;10.84;100.00;99785.72;5009408;28;19969;-62
2023/03/13 04:24:08;;;;;;;;;;;;;;;10.84;100.00;99775.09;5011453;28;20012;-62
2023/03/13 04:26:34;;;;;;;;;;;;;;;10.88;100.00;99778.97;5021312;28;19983;-62
2023/03/13 04:28:59;;;;;;;;;;;;;;;10.98;100.00;99767.97;5020981;28;19925;-62
2023/03/13 04:31:24;;;;;;;;;;;;;;;11.06;100.00;99755.34;5016052;28;19918;-62
2023/03/13 04:33:49;;;;;;;;;;;;;;;11.16;100.00;99760.28;5019244;28;19931;-62
2023/03/13 04:36:14;;;;;;;;;;;;;;;11.23;100.00;99749.66;5027643;28;20433;-62
2023/03/13 04:38:39;;;;;;;;;;;;;;;11.30;100.00;99739.88;5022047;28;19963;-62
2023/03/13 04:41:05;;;;;;;;;;;;;;;11.37;100.00;99738.03;5010911;28;20390;-62
2023/03/13 04:43:30;;;;;;;;;;;;;;;11.46;100.00;99747.44;5013313;28;19924;-61
2023/03/13 04:45:55;;;;;;;;;;;;;;;11.51;100.00;99738.84;5014298;28;20024;-61
2023/03/13 04:48:20;;;;;;;;;;;;;;;11.55;100.00;99727.59;5016651;28;19924;-62
2023/03/13 04:50:47;;;;;;;;;;;;;;;11.62;100.00;99735.59;5021531;28;19995;-62
2023/03/13 04:53:12;;;;;;;;;;;;;;;11.68;100.00;99727.63;5021231;28;19917;-62
2023/03/13 04:55:37;;;;;;;;;;;;;;;11.70;100.00;99735.41;5025260;28;19924;-62
2023/03/13 04:58:02;;;;;;;;;;;;;;;11.72;100.00;99744.00;5022333;28;19923;-62
2023/03/13 05:00:28;;;;;;;;;;;;;;;11.75;100.00;99723.13;5029113;28;20004;-62
2023/03/13 05:02:53;;;;;;;;;;;;;;;11.79;100.00;99727.03;5015317;28;20986;-62
2023/03/13 05:05:18;;;;;;;;;;;;;;;11.81;100.00;99720.69;5022779;28;19917;-62
2023/03/13 05:07:43;;;;;;;;;;;;;;;11.82;100.00;99725.78;5023849;28;19928;-61
2023/03/13 05:10:08;;;;;;;;;;;;;;;11.92;100.00;99712.09;5032404;28;20004;-61
2023/03/13 05:12:34;;;;;;;;;;;;;;;11.99;100.00;99712.91;5022385;28;19921;-61
2023/03/13 05:14:59;;;;;;;;;;;;;;;12.05;100.00;99720.88;5023550;28;19917;-62
2023/03/13 05:17:24;;;;;;;;;;;;;;;12.07;100.00;99699.38;5019657;28;20399;-62
2023/03/13 05:19:49;;;;;;;;;;;;;;;12.10;100.00;99715.72;5021792;28;19917;-62
2023/03/13 05:22:14;;;;;;;;;;;;;;;12.14;100.00;99712.66;5028432;28;19921;-62
2023/03/13 05:24:39;;;;;;;;;;;;;;;12.18;100.00;99700.59;5018457;28;19940;-61
2023/03/13 05:27:05;;;;;;;;;;;;;;;12.22;100.00;99723.91;5022769;28;19921;-62
2023/03/13 05:29:30;;;;;;;;;;;;;;;12.26;100.00;99703.81;5016643;28;19925;-62
2023/03/13 05:31:55;;;;;;;;;;;;;;;12.27;100.00;99705.47;5021717;28;20003;-62
2023/03/13 05:34:20;;;;;;;;;;;;;;;12.29;100.00;99700.75;5019216;28;20000;-62
2023/03/13 05:36:46;;;;;;;;;;;;;;;12.31;100.00;99703.19;5016905;28;19917;-62
2023/03/13 05:39:11;;;;;;;;;;;;;;;12.35;100.00;99710.56;5021615;28;19944;-62
2023/03/13 05:41:36;;;;;;;;;;;;;;;12.36;100.00;99708.72;5018647;28;19928;-61
2023/03/13 05:44:01;;;;;;;;;;;;;;;12.39;100.00;99700.28;5020659;28;19944;-62
2023/03/13 05:46:26;;;;;;;;;;;;;;;12.44;100.00;99708.50;5018846;28;20521;-61
2023/03/13 05:48:52;;;;;;;;;;;;;;;12.43;99.65;99708.69;5019636;28;19960;-62
2023/03/13 05:51:17;;;;;;;;;;;;;;;12.38;99.84;99699.47;5014775;28;19917;-62
2023/03/13 05:53:42;;;;;;;;;;;;;;;12.38;99.46;99704.81;5025152;28;19923;-62
2023/03/13 05:56:07;;;;;;;;;;;;;;;12.38;99.53;99701.31;5022516;28;19944;-62
2023/03/13 05:58:33;;;;;;;;;;;;;;;12.36;98.91;99706.03;5025280;28;19924;-61
2023/03/13 06:00:58;;;;;;;;;;;;;;;12.40;98.50;99707.25;5020018;28;20783;-62
2023/03/13 06:03:23;;;;;;;;;;;;;;;12.45;97.93;99707.47;5023980;28;19917;-61
2023/03/13 06:05:48;;;;;;;;;;;;;;;12.46;97.87;99709.09;5026268;28;20354;-61
2023/03/13 06:08:13;;;;;;;;;;;;;;;12.50;97.12;99704.16;5024567;28;19925;-61
2023/03/13 06:10:38;;;;;;;;;;;;;;;12.50;96.71;99697.00;5020223;28;19979;-61
2023/03/13 06:13:03;;;;;;;;;;;;;;;12.50;96.48;99706.84;5020278;28;19925;-63
2023/03/13 06:15:29;;;;;;;;;;;;;;;12.50;96.01;99694.34;5017997;28;19959;-62
2023/03/13 06:17:54;;;;;;;;;;;;;;;12.52;95.65;99686.13;5024648;28;19947;-62
2023/03/13 06:20:19;;;;;;;;;;;;;;;12.54;95.24;99673.41;5026813;28;19924;-62
2023/03/13 06:22:44;;;;;;;;;;;;;;;12.57;94.58;99683.66;5018888;28;19928;-61
2023/03/13 06:25:10;;;;;;;;;;;;;;;12.54;94.20;99690.22;5026032;28;19913;-62
2023/03/13 06:27:35;;;;;;;;;;;;;;;12.59;93.95;99679.75;5023934;28;19921;-61
2023/03/13 06:30:00;;;;;;;;;;;;;;;12.62;93.50;99697.13;5020656;28;19921;-62
2023/03/13 06:32:26;;;;;;;;;;;;;;;12.61;93.24;99701.66;5024157;28;19924;-61
2023/03/13 06:34:51;;;;;;;;;;;;;;;12.59;93.53;99685.06;5018837;28;19962;-62
2023/03/13 06:37:17;;;;;;;;;;;;;;;12.59;92.90;99681.59;5023622;28;20504;-62
2023/03/13 06:39:42;;;;;;;;;;;;;;;12.63;92.73;99680.13;5022761;28;20020;-62
2023/03/13 06:42:07;;;;;;;;;;;;;;;12.63;92.36;99691.59;5026611;28;20326;-62
2023/03/13 06:44:32;;;;;;;;;;;;;;;12.66;92.28;99685.84;5025585;28;20004;-62
2023/03/13 06:46:57;;;;;;;;;;;;;;;12.69;91.76;99697.91;5019239;28;20294;-61
2023/03/13 06:49:22;;;;;;;;;;;;;;;12.72;91.74;99686.84;5024593;28;19921;-61
2023/03/13 06:51:48;;;;;;;;;;;;;;;12.70;91.65;99697.72;5017289;28;19974;-62
2023/03/13 06:54:13;;;;;;;;;;;;;;;12.71;91.44;99695.84;5019054;28;19917;-62
2023/03/13 06:56:38;;;;;;;;;;;;;;;12.73;91.08;99701.00;5021203;28;20008;-62
2023/03/13 06:59:05;;;;;;;;;;;;;;;12.70;91.04;99679.06;5013268;28;20211;-62
2023/03/13 07:01:30;;;;;;;;;;;;;;;12.73;91.16;99677.03;5022586;28;19921;-62
2023/03/13 07:03:55;;;;;;;;;;;;;;;12.73;90.92;99682.34;5014211;28;20448;-62
2023/03/13 07:06:20;;;;;;;;;;;;;;;12.73;91.11;99695.69;5021134;28;20434;-62
2023/03/13 07:08:46;;;;;;;;;;;;;;;12.73;90.99;99693.84;5013352;28;19918;-62
2023/03/13 07:11:12;;;;;;;;;;;;;;;12.73;91.01;99685.84;5016786;28;20341;-62
2023/03/13 07:13:37;;;;;;;;;;;;;;;12.73;90.83;99690.34;5013950;28;20010;-62
2023/03/13 07:16:04;;;;;;;;;;;;;;;12.76;90.83;99672.09;5023676;28;20029;-62
2023/03/13 07:18:29;;;;;;;;;;;;;;;12.75;90.81;99683.78;5018091;28;20147;-62
2023/03/13 07:20:55;;;;;;;;;;;;;;;12.77;90.62;99672.91;5019584;28;20611;-62
2023/03/13 07:23:21;;;;;;;;;;;;;;;12.81;90.47;99692.75;5026334;28;20325;-62
2023/03/13 07:25:53;;;;;;;;;;;;;;;12.84;89.99;99679.00;5027779;28;20394;-62
2023/03/13 07:28:19;;;;;;;;;;;;;;;12.86;90.08;99671.63;5020037;28;20398;-62
2023/03/13 07:30:44;;;;;;;;;;;;;;;12.83;90.29;99672.88;5019856;28;20406;-61
2023/03/13 07:33:09;;;;;;;;;;;;;;;12.84;90.27;99676.34;5021537;28;19925;-62
2023/03/13 07:35:35;;;;;;;;;;;;;;;12.85;90.43;99672.66;5020591;28;19923;-62
2023/03/13 07:38:00;;;;;;;;;;;;;;;12.86;90.18;99671.63;5020908;28;19917;-62
2023/03/13 07:40:25;;;;;;;;;;;;;;;12.87;90.18;99679.41;5012852;28;19924;-62
2023/03/13 07:42:50;;;;;;;;;;;;;;;12.89;89.87;99684.50;5018936;28;19920;-62
2023/03/13 07:45:15;;;;;;;;;;;;;;;12.89;90.06;99682.66;5023281;28;19920;-62
2023/03/13 07:47:40;;;;;;;;;;;;;;;12.89;89.87;99688.00;5018504;28;20023;-62
2023/03/13 07:50:06;;;;;;;;;;;;;;;12.86;89.76;99677.75;5018791;28;19972;-62
2023/03/13 07:52:31;;;;;;;;;;;;;;;12.84;90.21;99682.50;5027337;28;19987;-62
2023/03/13 07:54:56;;;;;;;;;;;;;;;12.82;90.20;99697.88;5027276;28;20047;-61
2023/03/13 07:57:22;;;;;;;;;;;;;;;12.67;91.10;99692.81;5027923;28;19921;-62
2023/03/13 07:59:47;;;;;;;;;;;;;;;12.54;91.64;99692.88;5019593;28;19917;-62
2023/03/13 08:02:15;;;;;;;;;;;;;;;12.57;91.97;99678.31;5023790;28;20289;-61
2023/03/13 08:04:40;;;;;;;;;;;;;;;12.45;92.84;99694.16;5017062;28;19920;-62
2023/03/13 08:07:09;;;;;;;;;;;;;;;12.43;93.03;99684.72;5028420;28;19922;-61
2023/03/13 08:09:34;;;;;;;;;;;;;;;12.43;93.82;99684.72;5013715;28;20424;-62
2023/03/13 08:11:59;;;;;;;;;;;;;;;12.37;93.84;99681.06;5023152;28;19922;-62
2023/03/13 08:14:25;;;;;;;;;;;;;;;12.46;93.82;99679.00;5016613;28;19940;-62
2023/03/13 08:16:50;;;;;;;;;;;;;;;12.41;94.20;99671.63;5022991;28;20010;-62
2023/03/13 08:19:15;;;;;;;;;;;;;;;12.40;94.44;99675.31;5026554;28;19945;-62
2023/03/13 08:21:40;;;;;;;;;;;;;;;12.53;94.38;99672.59;5013949;28;20397;-62
2023/03/13 08:24:07;;;;;;;;;;;;;;;12.56;93.47;99680.16;5017097;28;19925;-62
2023/03/13 08:26:33;;;;;;;;;;;;;;;12.48;93.92;99656.44;5026259;28;19918;-62
2023/03/13 08:28:59;;;;;;;;;;;;;;;12.61;93.63;99675.00;5028832;28;20458;-62
2023/03/13 08:31:32;;;;;;;;;;;;;;;12.57;93.86;99695.13;5017965;28;19924;-61
2023/03/13 08:33:57;;;;;;;;;;;;;;;12.41;94.37;99676.94;5023561;28;19913;-61
2023/03/13 08:36:24;;;;;;;;;;;;;;;12.45;94.76;99664.88;5019926;28;19923;-61
2023/03/13 08:38:50;;;;;;;;;;;;;;;12.56;94.48;99672.19;5018804;28;19928;-62
2023/03/13 08:41:27;;;;;;;;;;;;;;;12.68;93.56;99682.97;5018200;28;19917;-62
2023/03/13 08:43:52;;;;;;;;;;;;;;;12.76;92.88;99660.63;5021474;28;19947;-62
2023/03/13 08:46:18;;;;;;;;;;;;;;;12.71;92.80;99677.22;5017228;28;20463;-61
2023/03/13 08:48:43;;;;;;;;;;;;;;;12.66;93.48;99688.50;5031033;28;19978;-61
2023/03/13 08:51:09;;;;;;;;;;;;;;;12.31;96.00;99688.03;5017409;28;19933;-62
2023/03/13 08:53:35;;;;;;;;;;;;;;;12.03;99.03;99668.88;5031151;28;20305;-61
2023/03/13 08:56:01;;;;;;;;;;;;;;;11.90;100.00;99660.94;5023740;28;19920;-61
2023/03/13 08:58:26;;;;;;;;;;;;;;;11.93;100.00;99681.81;5027635;28;19995;-61
2023/03/13 09:00:51;;;;;;;;;;;;;;;12.09;100.00;99644.91;5017331;28;20035;-62
2023/03/13 09:03:17;;;;;;;;;;;;;;;12.28;100.00;99643.22;5028961;28;19982;-62
2023/03/13 09:05:42;;;;;;;;;;;;;;;12.43;99.76;99634.94;5025291;28;19953;-62
2023/03/13 09:08:08;;;;;;;;;;;;;;;12.57;98.55;99631.19;5019301;28;20370;-62
2023/03/13 09:10:33;;;;;;;;;;;;;;;12.75;97.68;99629.69;5020075;28;19999;-61
2023/03/13 09:12:59;;;;;;;;;;;;;;;12.84;96.06;99620.38;5022566;28;19928;-62
2023/03/13 09:15:24;;;;;;;;;;;;;;;12.91;93.90;99632.63;5022283;28;19925;-62
2023/03/13 09:17:49;;;;;;;;;;;;;;;13.04;92.74;99618.41;5014124;28;19913;-61
2023/03/13 09:20:15;;;;;;;;;;;;;;;13.20;92.39;99625.06;5028329;28;19917;-62
2023/03/13 09:22:40;;;;;;;;;;;;;;;13.39;91.40;99597.44;5022640;28;19992;-61
2023/03/13 09:25:05;;;;;;;;;;;;;;;13.60;89.36;99605.03;5026134;28;19949;-62
2023/03/13 09:27:31;;;;;;;;;;;;;;;13.80;88.32;99610.16;5022173;28;19925;-61
2023/03/13 09:29:56;;;;;;;;;;;;;;;13.97;86.81;99605.06;5024199;28;19913;-62
2023/03/13 09:32:21;;;;;;;;;;;;;;;14.11;86.06;99597.69;5017103;28;20297;-62
2023/03/13 09:34:46;;;;;;;;;;;;;;;14.22;86.10;99591.63;5028549;28;20020;-62
2023/03/13 09:37:12;;;;;;;;;;;;;;;14.39;85.33;99587.28;5028442;28;19959;-62
2023/03/13 09:39:37;;;;;;;;;;;;;;;14.49;84.65;99598.28;5028113;28;20364;-62
2023/03/13 09:42:17;;;;;;;;;;;;;;;14.53;83.78;99593.28;5028680;28;19932;-62
2023/03/13 09:44:48;;;;;;;;;;;;;;;14.50;83.24;99567.84;5018800;28;19919;-62
2023/03/13 09:47:25;;;;;;;;;;;;;;;14.54;82.58;99565.53;5023296;28;19959;-61
2023/03/13 09:49:56;;;;;;;;;;;;;;;14.46;82.07;99580.03;5027397;28;19923;-61
2023/03/13 09:52:30;;;;;;;;;;;;;;;14.38;81.53;99568.81;5016979;28;20301;-62
2023/03/13 09:54:57;;;;;;;;;;;;;;;14.40;81.05;99606.78;5018804;28;19943;-62
2023/03/13 09:57:27;;;;;;;;;;;;;;;14.40;80.95;99570.19;5019466;28;19924;-62
2023/03/13 09:59:56;;;;;;;;;;;;;;;14.47;80.33;99576.31;5022627;28;19921;-62
2023/03/13 10:02:28;;;;;;;;;;;;;;;14.47;79.79;99562.16;5023851;28;19929;-63
2023/03/13 10:05:02;;;;;;;;;;;;;;;14.47;79.38;99560.28;5012080;28;19921;-62
2023/03/13 10:07:27;;;;;;;;;;;;;;;14.44;79.33;99557.22;5023673;28;19928;-62
2023/03/13 10:09:52;;;;;;;;;;;;;;;14.44;78.84;99550.03;5025551;28;19921;-62
2023/03/13 10:12:22;;;;;;;;;;;;;;;14.46;78.66;99547.97;5026220;28;20299;-62
2023/03/13 10:14:52;;;;;;;;;;;;;;;14.51;78.17;99552.63;5024003;28;19913;-61
2023/03/13 10:17:38;;;;;;;;;;;;;;;14.56;77.82;99556.25;5021624;28;19952;-62
2023/03/13 10:20:09;;;;;;;;;;;;;;;14.75;77.71;99548.19;5021440;28;19948;-62
2023/03/13 10:22:36;;;;;;;;;;;;;;;14.83;76.56;99561.19;5026425;28;20405;-61
2023/03/13 10:25:03;;;;;;;;;;;;;;;14.84;75.50;99582.34;5015499;28;19921;-62
2023/03/13 10:27:28;;;;;;;;;;;;;;;14.78;75.16;99550.38;5023926;28;19956;-62
2023/03/13 10:29:54;;;;;;;;;;;;;;;14.76;75.06;99549.81;5022594;28;19967;-62
2023/03/13 10:32:19;;;;;;;;;;;;;;;14.79;75.18;99555.50;5012667;28;19925;-62
2023/03/13 10:34:47;;;;;;;;;;;;;;;14.88;74.94;99537.25;5018176;28;19935;-62
2023/03/13 10:37:14;;;;;;;;;;;;;;;14.94;74.99;99536.34;5031034;28;20421;-62
2023/03/13 10:39:39;;;;;;;;;;;;;;;14.97;74.18;99540.41;5020651;28;19978;-61
2023/03/13 10:42:09;;;;;;;;;;;;;;;14.98;74.05;99532.16;5013808;28;19917;-61
2023/03/13 10:44:35;;;;;;;;;;;;;;;14.99;74.85;99517.72;5021468;28;19913;-62
2023/03/13 10:47:01;;;;;;;;;;;;;;;15.14;74.64;99519.97;5015318;28;19928;-62
2023/03/13 10:49:26;;;;;;;;;;;;;;;15.26;73.34;99511.94;5020444;28;19920;-62
2023/03/13 10:51:52;;;;;;;;;;;;;;;15.34;73.07;99514.28;5020299;28;19928;-62
2023/03/13 10:54:28;;;;;;;;;;;;;;;15.38;72.66;99518.09;5027159;28;20006;-62
2023/03/13 10:57:17;;;;;;;;;;;;;;;15.28;72.14;99532.03;5015448;28;19928;-62
2023/03/13 10:59:43;;;;;;;;;;;;;;;15.17;72.11;99519.50;5005665;28;20477;-62
2023/03/13 11:02:20;;;;;;;;;;;;;;;15.15;72.77;99527.75;5027037;28;19913;-62
2023/03/13 11:04:48;;;;;;;;;;;;;;;15.12;73.23;99506.00;5018687;28;19925;-62
2023/03/13 11:07:20;;;;;;;;;;;;;;;15.20;73.55;99511.00;5022784;28;19953;-62
2023/03/13 11:09:59;;;;;;;;;;;;;;;15.31;73.75;99512.03;5021542;28;19917;-62
2023/03/13 11:12:24;;;;;;;;;;;;;;;15.35;73.65;99521.25;5026337;28;19921;-62
2023/03/13 11:14:55;;;;;;;;;;;;;;;15.26;73.68;99512.75;5020026;28;19920;-61
2023/03/13 11:17:32;;;;;;;;;;;;;;;15.21;73.51;99527.88;5026117;28;19917;-62
2023/03/13 11:20:16;;;;;;;;;;;;;;;15.17;74.32;99501.59;5016125;28;19914;-62
2023/03/13 11:22:41;;;;;;;;;;;;;;;15.21;74.18;99491.25;5016331;28;19917;-62
2023/03/13 11:25:13;;;;;;;;;;;;;;;15.34;73.55;99490.19;5022915;28;19918;-62
2023/03/13 11:28:04;;;;;;;;;;;;;;;15.49;73.39;99495.84;5021426;28;19925;-62
2023/03/13 11:30:48;;;;;;;;;;;;;;;15.52;72.73;99495.38;5013962;28;20326;-61
2023/03/13 11:33:23;;;;;;;;;;;;;;;15.50;73.07;99484.09;5024563;28;19932;-61
2023/03/13 11:35:52;;;;;;;;;;;;;;;15.65;71.84;99508.56;5018198;28;19968;-62
2023/03/13 11:38:18;;;;;;;;;;;;;;;15.54;70.82;99493.28;5024480;28;19913;-62
2023/03/13 11:40:43;;;;;;;;;;;;;;;15.44;71.15;99477.03;5021934;28;19921;-62
2023/03/13 11:43:19;;;;;;;;;;;;;;;15.36;71.24;99486.25;5020613;28;19962;-62
2023/03/13 11:45:52;;;;;;;;;;;;;;;15.28;70.19;99475.88;5016405;28;20031;-62
2023/03/13 11:48:26;;;;;;;;;;;;;;;15.25;70.08;99468.31;5024095;28;19917;-62
2023/03/13 11:50:59;;;;;;;;;;;;;;;15.33;69.67;99472.53;5021552;28;19913;-62
2023/03/13 11:53:37;;;;;;;;;;;;;;;15.57;69.34;99471.41;5014974;28;20445;-62
2023/03/13 11:56:05;;;;;;;;;;;;;;;15.86;68.23;99466.13;5013326;28;19943;-62
2023/03/13 11:58:39;;;;;;;;;;;;;;;16.10;68.25;99459.63;5021568;28;19928;-62
2023/03/13 12:01:10;;;;;;;;;;;;;;;16.28;67.88;99450.56;5011626;28;19925;-62
2023/03/13 12:03:40;;;;;;;;;;;;;;;16.28;67.13;99437.97;5015773;28;20357;-62
2023/03/13 12:06:11;;;;;;;;;;;;;;;16.11;66.03;99445.97;5024504;28;19921;-62
2023/03/13 12:08:41;;;;;;;;;;;;;;;15.96;65.44;99434.19;5021654;28;19913;-62
2023/03/13 12:11:32;;;;;;;;;;;;;;;15.87;65.90;99452.47;5024396;28;20035;-62
2023/03/13 12:14:21;;;;;;;;;;;;;;;15.82;66.11;99420.28;5021060;28;20401;-63
2023/03/13 12:16:48;;;;;;;;;;;;;;;15.79;66.21;99451.00;5024851;28;19929;-62
2023/03/13 12:19:20;;;;;;;;;;;;;;;15.85;66.77;99408.25;5023843;28;19913;-61
2023/03/13 12:21:49;;;;;;;;;;;;;;;16.03;66.64;99422.28;5022413;28;19918;-62
2023/03/13 12:24:25;;;;;;;;;;;;;;;16.22;65.19;99408.69;5025748;28;19928;-62
2023/03/13 12:26:54;;;;;;;;;;;;;;;16.18;63.40;99411.00;5027478;28;19921;-63
2023/03/13 12:29:22;;;;;;;;;;;;;;;16.27;62.88;99398.84;5021332;28;20439;-62
2023/03/13 12:31:59;;;;;;;;;;;;;;;16.41;62.27;99397.47;5013515;28;19940;-59
2023/03/13 12:34:27;;;;;;;;;;;;;;;16.50;61.85;99372.97;5021074;28;20430;-60
2023/03/13 12:36:59;;;;;;;;;;;;;;;16.66;61.78;99375.63;5027091;28;19918;-61
2023/03/13 12:39:32;;;;;;;;;;;;;;;16.67;61.86;99381.81;5013135;28;19941;-59
2023/03/13 12:42:18;;;;;;;;;;;;;;;16.70;62.54;99382.13;5020358;28;19920;-60